Time;durP1;ratioP1;P1;durP2;ratioP2;P2;SDS_P1;SDS_P2;PMS_P1;PMS_P2;Temp;Humidity;BMP_temperature;BMP_pressure;BME280_temperature;BME280_humidity;BME280_pressure;Samples;Min_cycle;Max_cycle;Signal;HPM_P1;HPM_P2
2022/12/28 00:02:18;;;;;;;7.10;4.20;;;4.40;99.90;;;4.10;74.32;100963.88;5113711;28;20239;-69
2022/12/28 00:04:48;;;;;;;7.07;4.33;;;4.40;99.90;;;4.10;74.26;100958.78;5116265;28;20211;-69
2022/12/28 00:07:17;;;;;;;9.77;4.20;;;4.40;99.90;;;4.10;73.90;100958.78;5114325;28;20305;-69
2022/12/28 00:09:45;;;;;;;7.93;4.00;;;4.40;99.90;;;4.10;74.36;100951.13;5110667;28;20308;-69
2022/12/28 00:12:14;;;;;;;8.33;4.37;;;4.40;99.90;;;4.13;74.11;100953.75;5102571;28;20208;-66
2022/12/28 00:14:42;;;;;;;9.00;4.50;;;4.40;99.90;;;4.11;74.23;100960.50;5103664;28;20744;-68
2022/12/28 00:17:13;;;;;;;8.83;4.43;;;4.40;99.90;;;4.09;74.33;100957.03;5106895;28;20204;-68
2022/12/28 00:19:43;;;;;;;10.23;5.20;;;4.40;99.90;;;4.07;74.25;100953.56;5109195;28;20234;-68
2022/12/28 00:22:11;;;;;;;9.27;4.20;;;4.30;99.90;;;4.08;73.90;100955.28;5112094;28;20200;-68
2022/12/28 00:24:40;;;;;;;8.97;4.43;;;4.30;99.90;;;4.05;73.63;100953.53;5112151;28;20256;-67
2022/12/28 00:27:08;;;;;;;7.23;4.10;;;4.30;99.90;;;4.04;73.66;100956.88;5117930;28;20257;-69
2022/12/28 00:29:37;;;;;;;10.23;4.63;;;4.30;99.90;;;4.03;74.28;100957.72;5116518;28;20247;-67
2022/12/28 00:32:06;;;;;;;10.60;4.50;;;4.30;99.90;;;4.02;74.03;100962.78;5116903;28;20239;-68
2022/12/28 00:34:34;;;;;;;12.33;4.10;;;4.30;99.90;;;4.01;74.05;100958.47;5115843;28;20577;-69
2022/12/28 00:37:04;;;;;;;8.97;4.33;;;4.30;99.90;;;4.03;74.12;100960.25;5116753;28;20208;-71
2022/12/28 00:39:41;;;;;;;8.17;4.27;;;4.30;99.90;;;4.01;74.06;100963.56;5112809;27;20224;-69
2022/12/28 00:42:11;;;;;;;9.27;4.70;;;4.30;99.90;;;3.99;74.10;100955.03;5106633;28;20667;-69
2022/12/28 00:44:40;;;;;;;7.33;4.20;;;4.30;99.90;;;3.98;74.27;100973.72;5115768;28;20615;-68
2022/12/28 00:47:08;;;;;;;8.53;4.30;;;4.30;99.90;;;3.95;74.55;100966.81;5114147;28;20204;-70
2022/12/28 00:49:37;;;;;;;7.70;4.30;;;4.20;99.90;;;3.95;74.58;100969.38;5116824;28;20283;-67
2022/12/28 00:52:07;;;;;;;9.33;4.73;;;4.30;99.90;;;3.95;74.21;100969.38;5113027;28;20200;-69
2022/12/28 00:54:35;;;;;;;9.20;4.50;;;4.20;99.90;;;3.94;74.66;100977.84;5113038;28;20784;-70
2022/12/28 00:57:04;;;;;;;10.37;4.33;;;4.20;99.90;;;3.93;74.68;100968.44;5115982;28;20293;-70
2022/12/28 00:59:32;;;;;;;8.30;4.50;;;4.20;99.90;;;3.94;74.25;100982.06;5118986;28;20348;-71
2022/12/28 01:02:01;;;;;;;9.30;3.87;;;4.20;99.90;;;3.94;74.71;100982.06;5115973;28;20215;-68
2022/12/28 01:04:29;;;;;;;7.47;4.30;;;4.20;99.90;;;3.92;74.56;100973.53;5117308;28;20236;-69
2022/12/28 01:06:58;;;;;;;10.20;4.17;;;4.20;99.90;;;3.88;74.58;100978.53;5117543;28;20641;-70
2022/12/28 01:09:27;;;;;;;6.03;3.70;;;4.10;99.90;;;3.86;74.07;100969.94;5118088;28;20211;-69
2022/12/28 01:11:56;;;;;;;9.20;4.10;;;4.20;99.90;;;3.85;74.20;100975.88;5115056;27;20208;-69
2022/12/28 01:14:24;;;;;;;5.90;3.60;;;4.10;99.90;;;3.81;74.36;100970.63;5115393;28;20237;-67
2022/12/28 01:16:53;;;;;;;9.80;4.23;;;4.10;99.90;;;3.79;73.99;100983.34;5116596;28;20674;-70
2022/12/28 01:19:24;;;;;;;10.00;4.23;;;4.10;99.90;;;3.77;74.78;100979.88;5113270;28;20227;-64
2022/12/28 01:21:52;;;;;;;6.40;4.00;;;4.00;99.90;;;3.76;74.50;100977.28;5110919;28;20207;-66
2022/12/28 01:24:21;;;;;;;7.03;3.90;;;4.00;99.90;;;3.71;74.55;100969.47;5110232;28;20613;-64
2022/12/28 01:26:51;;;;;;;6.80;3.80;;;4.00;99.90;;;3.73;74.33;100972.94;5111063;28;20214;-64
2022/12/28 01:29:19;;;;;;;7.50;4.07;;;4.00;99.90;;;3.72;75.02;100966.13;5109483;27;20199;-66
2022/12/28 01:31:48;;;;;;;9.13;4.93;;;4.00;99.90;;;3.72;75.19;100957.59;5101516;28;20236;-65
2022/12/28 01:34:16;;;;;;;10.60;4.60;;;4.00;99.90;;;3.73;75.33;100967.84;5105329;28;20292;-65
2022/12/28 01:36:45;;;;;;;5.07;3.90;;;4.10;99.90;;;3.72;74.61;100952.50;5109347;28;20269;-64
2022/12/28 01:39:14;;;;;;;7.07;4.40;;;4.00;99.90;;;3.75;74.60;100957.69;5100492;28;20284;-65
2022/12/28 01:41:43;;;;;;;7.97;4.43;;;4.00;99.90;;;3.76;75.47;100955.22;5107565;28;20200;-65
2022/12/28 01:44:47;;;;;;;7.00;4.20;;;4.00;99.90;;;3.77;74.68;100958.63;5110505;28;20219;-65
2022/12/28 01:47:21;;;;;;;6.57;3.83;;;4.00;99.90;;;3.78;75.00;100958.66;5061283;28;20212;-63
2022/12/28 01:49:58;;;;;;;7.30;4.13;;;4.10;99.90;;;3.76;75.40;100952.66;5052146;28;20894;-64
2022/12/28 01:52:33;;;;;;;9.33;4.27;;;4.00;99.90;;;3.79;75.24;100959.50;5097070;28;20280;-70
2022/12/28 01:55:09;;;;;;;8.47;4.17;;;4.10;99.90;;;3.77;74.82;100964.59;5115885;28;20256;-69
2022/12/28 01:57:43;;;;;;;9.67;4.50;;;4.00;99.90;;;3.78;74.37;100963.75;5117342;28;20262;-67
2022/12/28 02:00:15;;;;;;;6.83;4.00;;;4.00;99.90;;;3.77;75.23;100958.63;5116956;28;20291;-69
2022/12/28 02:02:50;;;;;;;7.13;3.93;;;4.00;99.90;;;3.77;74.55;100964.59;5118293;28;20200;-69
2022/12/28 02:05:20;;;;;;;6.63;4.47;;;4.00;99.90;;;3.78;75.28;100963.75;5118992;28;20580;-67
2022/12/28 02:07:55;;;;;;;11.97;4.57;;;4.00;99.90;;;3.79;75.26;100956.97;5106495;28;20208;-69
2022/12/28 02:10:26;;;;;;;8.83;4.10;;;4.00;99.90;;;3.80;74.57;100958.72;5117120;28;20195;-68
2022/12/28 02:13:15;;;;;;;9.40;4.10;;;4.10;99.90;;;3.79;75.25;100956.97;5118753;28;20601;-68
2022/12/28 02:15:46;;;;;;;8.27;4.13;;;4.00;99.90;;;3.78;75.09;100958.66;5117892;28;20204;-69
2022/12/28 02:18:17;;;;;;;8.33;4.50;;;4.00;99.90;;;3.76;75.01;100957.75;5119212;28;20204;-69
2022/12/28 02:21:16;;;;;;;11.53;4.47;;;4.00;99.90;;;3.73;74.92;100949.16;5112188;28;20212;-70
2022/12/28 02:24:38;;;;;;;7.00;3.80;;;4.00;99.90;;;3.70;74.75;100949.06;5111806;28;20200;-68
2022/12/28 02:27:20;;;;;;;9.47;4.10;;;4.00;99.90;;;3.69;74.49;100944.78;5076867;28;20300;-68
2022/12/28 02:30:01;;;;;;;5.07;4.20;;;3.90;99.90;;;3.66;75.36;100943.00;5114885;28;20199;-68
2022/12/28 02:32:52;;;;;;;6.97;4.47;;;4.00;99.90;;;3.63;75.21;100936.13;5117794;28;20296;-69
2022/12/28 02:35:32;;;;;;;8.83;4.53;;;3.90;99.90;;;3.61;75.40;100934.34;5109724;28;20663;-66
2022/12/28 02:38:07;;;;;;;7.67;4.47;;;3.90;99.90;;;3.61;75.34;100939.47;5114517;28;20291;-70
2022/12/28 02:40:43;;;;;;;12.00;4.73;;;3.90;99.90;;;3.58;75.04;100941.91;5118869;28;20260;-68
2022/12/28 02:43:13;;;;;;;10.07;4.70;;;3.80;99.90;;;3.55;75.44;100934.16;5118765;28;20203;-67
2022/12/28 02:52:01;;;;;;;6.63;4.87;;;3.80;99.90;;;3.44;75.48;100930.41;5115206;28;20200;-68
2022/12/28 02:58:15;;;;;;;10.83;5.10;;;3.70;99.90;;;3.35;74.82;100931.84;5104597;28;20723;-69
2022/12/28 03:01:02;;;;;;;6.97;4.10;;;3.60;99.90;;;3.29;74.80;100933.34;5107585;28;20276;-66
2022/12/28 03:03:39;;;;;;;11.30;4.93;;;3.60;99.90;;;3.20;75.35;100928.78;5116695;28;20211;-69
2022/12/28 03:09:15;;;;;;;7.67;5.40;;;3.40;99.90;;;3.07;76.09;100926.69;5106457;28;20571;-69
2022/12/28 03:11:51;;;;;;;9.17;4.93;;;3.30;99.90;;;3.03;75.35;100940.13;5114135;28;20720;-69
2022/12/28 03:14:27;;;;;;;9.27;4.93;;;3.30;99.90;;;2.98;76.17;100939.09;5120042;28;20278;-70
2022/12/28 03:31:15;;;;;;;11.60;5.00;;;3.00;99.90;;;2.80;76.92;100930.03;5116180;28;20199;-68
2022/12/28 03:33:48;;;;;;;13.60;6.27;;;3.00;99.90;;;2.77;76.50;100932.47;5108486;28;20242;-70
2022/12/28 03:36:28;;;;;;;8.37;5.17;;;3.00;99.90;;;2.75;77.47;100933.22;5116627;28;20289;-69
2022/12/28 03:39:09;;;;;;;10.13;6.00;;;3.00;99.90;;;2.75;77.39;100923.91;5115764;28;20340;-71
2022/12/28 03:41:43;;;;;;;13.93;5.93;;;3.00;99.90;;;2.76;77.59;100928.22;5117660;28;20204;-69
2022/12/28 03:44:21;;;;;;;11.53;5.53;;;3.00;99.90;;;2.78;77.43;100924.03;5116745;28;20253;-67
2022/12/28 03:46:56;;;;;;;8.67;5.40;;;3.00;99.90;;;2.78;77.53;100924.03;5117662;28;20230;-68
2022/12/28 03:49:27;;;;;;;10.47;5.97;;;3.00;99.90;;;2.77;76.73;100916.34;5117893;28;20593;-68
2022/12/28 03:51:57;;;;;;;13.07;5.40;;;3.00;99.90;;;2.73;76.94;100912.84;5113596;28;20222;-71
2022/12/28 03:54:25;;;;;;;9.70;5.63;;;3.00;99.90;;;2.72;76.84;100910.22;5117659;28;20219;-69
2022/12/28 03:56:54;;;;;;;13.13;5.50;;;2.90;99.90;;;2.72;77.56;100902.59;5116904;28;20265;-68
2022/12/28 03:59:22;;;;;;;8.33;5.70;;;2.90;99.90;;;2.69;77.13;100889.75;5118962;28;20196;-68
2022/12/28 04:01:51;;;;;;;8.17;5.57;;;2.90;99.90;;;2.72;77.03;100887.31;5122177;28;20223;-69
2022/12/28 04:04:19;;;;;;;9.60;5.30;;;2.90;99.90;;;2.72;77.55;100867.81;5125321;28;20252;-67
2022/12/28 04:06:49;;;;;;;10.30;5.17;;;2.90;99.90;;;2.71;77.32;100876.28;5123434;28;20264;-68
2022/12/28 04:09:17;;;;;;;11.00;5.57;;;2.90;99.90;;;2.72;76.90;100872.91;5123614;28;20225;-68
2022/12/28 04:11:46;;;;;;;10.80;5.87;;;2.90;99.90;;;2.71;77.24;100876.28;5123789;28;20348;-68
2022/12/28 04:14:14;;;;;;;10.13;5.80;;;2.90;99.90;;;2.71;77.21;100868.66;5124962;28;20681;-67
2022/12/28 04:16:43;;;;;;;10.27;6.37;;;2.90;99.90;;;2.69;76.62;100867.75;5124450;28;20207;-68
2022/12/28 04:19:11;;;;;;;7.73;5.57;;;2.90;99.90;;;2.66;77.46;100872.72;5121098;28;20212;-68
2022/12/28 04:21:40;;;;;;;10.47;5.50;;;2.80;99.90;;;2.63;76.97;100872.63;5118592;28;20668;-67
2022/12/28 04:24:09;;;;;;;8.20;5.80;;;2.80;99.90;;;2.56;77.06;100870.69;5109991;28;20592;-68
2022/12/28 04:26:38;;;;;;;11.27;5.07;;;2.80;99.90;;;2.53;76.62;100875.66;5122384;28;20570;-66
2022/12/28 04:29:06;;;;;;;13.97;5.97;;;2.70;99.90;;;2.48;77.08;100872.09;5113963;28;20613;-69
2022/12/28 04:31:34;;;;;;;10.33;6.03;;;2.60;99.90;;;2.44;76.98;100871.13;5121189;28;20207;-68
2022/12/28 04:34:03;;;;;;;8.13;5.50;;;2.60;99.90;;;2.41;76.94;100871.88;5108868;28;20240;-67
2022/12/28 04:36:32;;;;;;;9.60;5.50;;;2.60;99.90;;;2.41;77.53;100871.88;5122884;28;20196;-68
2022/12/28 04:39:00;;;;;;;10.57;5.87;;;2.60;99.90;;;2.39;77.90;100867.53;5120850;28;20192;-67
2022/12/28 04:41:30;;;;;;;11.30;5.40;;;2.60;99.90;;;2.35;77.70;100869.09;5123369;27;20243;-67
2022/12/28 04:43:58;;;;;;;10.23;6.17;;;2.70;99.90;;;2.30;77.81;100873.19;5126036;28;20218;-68
2022/12/28 04:46:27;;;;;;;10.93;5.47;;;2.50;99.90;;;2.26;77.32;100870.47;5126452;28;20204;-67
2022/12/28 04:48:55;;;;;;;8.30;5.30;;;2.40;99.90;;;2.22;77.60;100874.59;5124628;28;20226;-70
2022/12/28 04:51:26;;;;;;;11.47;5.77;;;2.40;99.90;;;2.19;77.97;100879.56;5126302;28;20196;-68
2022/12/28 04:53:56;;;;;;;7.73;5.70;;;2.40;99.90;;;2.18;78.44;100883.78;5117023;28;20200;-70
2022/12/28 04:56:27;;;;;;;11.10;5.57;;;2.40;99.90;;;2.15;78.57;100877.72;5121733;28;20238;-68
2022/12/28 04:58:58;;;;;;;10.83;6.10;;;2.40;99.90;;;2.12;78.36;100877.63;5122995;28;20912;-67
2022/12/28 05:01:27;;;;;;;7.17;5.00;;;2.30;99.90;;;2.09;78.66;100891.06;5125385;28;20664;-69
2022/12/28 05:03:56;;;;;;;11.10;5.57;;;2.20;99.90;;;2.05;78.69;100891.78;5124260;28;20295;-69
2022/12/28 05:06:28;;;;;;;7.97;4.90;;;2.20;99.90;;;1.99;78.73;100876.31;5125340;28;20208;-68
2022/12/28 05:08:57;;;;;;;10.93;5.93;;;2.10;99.90;;;1.94;78.79;100876.13;5125212;28;20440;-69
2022/12/28 05:11:28;;;;;;;10.13;5.97;;;2.10;99.90;;;1.90;78.76;100870.88;5123470;28;20204;-68
2022/12/28 05:13:58;;;;;;;12.70;6.37;;;2.10;99.90;;;1.88;79.23;100863.22;5123642;28;20253;-69
2022/12/28 05:16:29;;;;;;;12.17;5.90;;;2.10;99.90;;;1.87;79.13;100871.63;5122560;28;20230;-68
2022/12/28 05:18:58;;;;;;;12.53;6.43;;;2.00;99.90;;;1.85;79.43;100863.09;5121767;28;20204;-68
2022/12/28 05:21:28;;;;;;;11.37;6.80;;;2.00;99.90;;;1.85;78.81;100864.78;5123561;28;20276;-69
2022/12/28 05:23:58;;;;;;;14.73;7.57;;;2.00;99.90;;;1.86;79.03;100863.97;5122226;28;20247;-67
2022/12/28 05:26:29;;;;;;;15.80;8.37;;;2.00;99.90;;;1.85;78.77;100865.66;5120452;28;20226;-69
2022/12/28 05:28:59;;;;;;;15.67;9.20;;;2.00;99.90;;;1.83;79.12;100864.69;5121643;28;20220;-68
2022/12/28 05:31:28;;;;;;;15.20;9.43;;;2.00;99.90;;;1.81;79.41;100866.34;5119206;28;20206;-69
2022/12/28 05:33:56;;;;;;;12.53;8.43;;;1.90;99.90;;;1.78;79.30;100868.75;5121506;28;20247;-69
2022/12/28 05:36:27;;;;;;;14.33;9.57;;;1.90;99.90;;;1.72;79.19;100860.91;5121820;28;20204;-69
2022/12/28 05:38:56;;;;;;;13.80;8.20;;;1.90;99.90;;;1.67;79.95;100849.72;5122026;28;20199;-67
2022/12/28 05:41:27;;;;;;;16.33;8.33;;;1.90;99.90;;;1.68;79.92;100856.53;5113886;28;20220;-66
2022/12/28 05:43:59;;;;;;;11.83;7.13;;;1.90;99.90;;;1.67;79.45;100847.19;5119864;28;20204;-68
2022/12/28 05:46:30;;;;;;;16.77;7.30;;;1.90;99.90;;;1.64;78.97;100847.91;5119086;28;20212;-69
2022/12/28 05:48:59;;;;;;;9.40;6.40;;;1.80;99.90;;;1.64;79.57;100847.06;5120130;28;20196;-67
2022/12/28 05:51:30;;;;;;;12.00;7.30;;;1.80;99.90;;;1.63;79.47;100840.25;5120233;28;20208;-68
2022/12/28 05:54:00;;;;;;;15.83;7.13;;;1.80;99.90;;;1.60;79.74;100837.59;5122096;28;20204;-69
2022/12/28 05:56:31;;;;;;;14.33;7.23;;;1.80;99.90;;;1.55;79.46;100834.91;5118239;28;20204;-68
2022/12/28 05:59:03;;;;;;;10.80;7.40;;;1.80;99.90;;;1.54;79.50;100828.06;5119499;28;20208;-68
2022/12/28 06:01:34;;;;;;;14.50;6.83;;;1.80;99.90;;;1.53;80.13;100833.09;5118444;28;20228;-68
2022/12/28 06:04:07;;;;;;;10.37;6.53;;;1.70;99.90;;;1.50;79.63;100836.38;5119804;28;20192;-67
2022/12/28 06:06:35;;;;;;;13.63;7.20;;;1.70;99.90;;;1.48;79.57;100839.69;5118550;28;20204;-67
2022/12/28 06:09:04;;;;;;;13.97;6.93;;;1.70;99.90;;;1.47;79.40;100838.78;5124605;28;20200;-70
2022/12/28 06:11:33;;;;;;;10.90;7.03;;;1.70;99.90;;;1.43;79.69;100840.34;5118994;28;20208;-69
2022/12/28 06:14:04;;;;;;;10.57;6.80;;;1.70;99.90;;;1.39;79.52;100835.09;5113622;28;20204;-68
2022/12/28 06:16:37;;;;;;;14.83;7.20;;;1.70;99.90;;;1.40;80.45;100841.91;5109250;28;20208;-71
2022/12/28 06:19:08;;;;;;;11.40;6.77;;;1.60;99.90;;;1.37;79.85;100842.69;5106613;28;20245;-67
2022/12/28 06:21:39;;;;;;;12.20;7.67;;;1.60;99.90;;;1.35;79.53;100840.88;5107106;28;20216;-66
2022/12/28 06:24:09;;;;;;;14.33;7.07;;;1.60;99.90;;;1.33;79.81;100843.38;5115780;28;20212;-67
2022/12/28 06:26:40;;;;;;;12.63;7.30;;;1.60;99.90;;;1.34;79.89;100836.63;5123674;28;20211;-67
2022/12/28 06:29:11;;;;;;;12.50;6.80;;;1.60;99.90;;;1.34;80.44;100837.47;5115342;28;20204;-66
2022/12/28 06:31:43;;;;;;;14.00;7.33;;;1.60;99.90;;;1.34;80.20;100834.94;5121032;28;20254;-67
2022/12/28 06:34:12;;;;;;;9.90;6.50;;;1.60;99.90;;;1.33;80.49;100830.69;5116349;28;20232;-66
2022/12/28 06:36:42;;;;;;;9.50;7.00;;;1.60;99.90;;;1.35;80.67;100838.34;5118820;28;20210;-68
2022/12/28 06:39:14;;;;;;;13.47;6.93;;;1.60;99.90;;;1.33;80.41;100828.13;5110401;28;20691;-67
2022/12/28 06:41:42;;;;;;;11.80;6.87;;;1.60;99.90;;;1.31;79.94;100821.25;5111316;28;20295;-68
2022/12/28 06:44:14;;;;;;;11.77;6.53;;;1.60;99.90;;;1.30;79.99;100838.16;5104471;28;20248;-69
2022/12/28 06:46:42;;;;;;;14.97;7.40;;;1.60;99.90;;;1.31;80.54;100832.28;5100210;28;20219;-69
2022/12/28 06:49:11;;;;;;;12.77;7.87;;;1.60;99.90;;;1.33;80.45;100827.28;5099939;28;20265;-67
2022/12/28 06:51:40;;;;;;;12.30;7.37;;;1.60;99.90;;;1.34;79.90;100822.25;5106149;28;20201;-70
2022/12/28 06:54:10;;;;;;;12.97;7.20;;;1.60;99.90;;;1.34;80.28;100824.78;5110726;28;20672;-71
2022/12/28 06:56:39;;;;;;;13.00;7.07;;;1.60;99.90;;;1.37;79.98;100816.44;5109503;28;20234;-75
2022/12/28 06:59:07;;;;;;;11.80;7.50;;;1.60;99.90;;;1.38;79.82;100818.16;5110031;28;20214;-68
2022/12/28 07:01:39;;;;;;;16.03;7.67;;;1.60;99.90;;;1.39;79.80;100815.66;5111890;28;20224;-68
2022/12/28 07:04:09;;;;;;;11.13;7.03;;;1.60;99.90;;;1.40;79.90;100813.97;5106802;28;20200;-68
2022/12/28 07:06:41;;;;;;;11.17;7.57;;;1.60;99.90;;;1.39;80.04;100804.63;5107197;28;20204;-70
2022/12/28 07:09:13;;;;;;;13.67;7.70;;;1.60;99.90;;;1.41;79.56;100819.13;5112884;28;20577;-68
2022/12/28 07:11:42;;;;;;;17.03;7.97;;;1.70;99.90;;;1.40;79.98;100812.34;5108721;28;20218;-69
2022/12/28 07:14:11;;;;;;;12.90;7.77;;;1.70;99.90;;;1.44;79.41;100818.38;5107229;28;20273;-68
2022/12/28 07:16:40;;;;;;;14.97;7.40;;;1.70;99.90;;;1.45;79.50;100809.97;5108198;28;20212;-69
2022/12/28 07:19:09;;;;;;;13.10;8.00;;;1.70;99.90;;;1.45;79.38;100798.13;5106257;28;20204;-72
2022/12/28 07:21:40;;;;;;;14.17;8.23;;;1.70;99.90;;;1.47;79.37;100782.06;5112166;28;20595;-74
2022/12/28 07:24:09;;;;;;;14.43;7.77;;;1.80;99.90;;;1.51;79.79;100788.97;5111247;28;20215;-74
2022/12/28 07:26:38;;;;;;;13.03;7.40;;;1.80;99.90;;;1.55;79.30;100789.19;5113214;28;20211;-71
2022/12/28 07:29:08;;;;;;;13.27;7.87;;;1.80;99.90;;;1.60;79.34;100780.03;5109631;28;20203;-74
2022/12/28 07:31:40;;;;;;;12.00;7.83;;;1.90;99.90;;;1.71;79.59;100775.34;5112035;28;20196;-74
2022/12/28 07:34:14;;;;;;;9.83;7.13;;;1.90;99.90;;;1.76;78.65;100781.44;4992203;28;20214;-72
2022/12/28 07:36:44;;;;;;;13.60;7.57;;;2.00;99.90;;;1.84;78.67;100780.06;4997985;28;20227;-74
2022/12/28 07:39:12;;;;;;;12.35;8.75;;;2.10;99.90;;;1.90;79.30;100770.09;4978273;28;20453;-73
2022/12/28 07:41:41;;;;;;;13.10;7.87;;;2.20;99.90;;;1.99;78.47;100768.69;4979570;28;20661;-73
2022/12/28 07:44:09;;;;;;;9.67;6.90;;;2.20;99.90;;;2.08;77.61;100774.09;4989367;28;20338;-72
2022/12/28 07:46:40;;;;;;;10.37;6.80;;;2.30;99.90;;;2.17;77.32;100785.47;4995173;28;20212;-72
2022/12/28 07:49:08;;;;;;;14.47;7.97;;;2.40;99.90;;;2.23;76.89;100782.25;4983555;28;20304;-72
2022/12/28 07:51:39;;;;;;;9.67;6.87;;;2.40;99.90;;;2.29;77.46;100763.81;4987686;28;20303;-71
2022/12/28 07:54:08;;;;;;;10.37;6.90;;;2.50;99.90;;;2.37;76.12;100783.56;4991240;28;20272;-70
2022/12/28 07:56:36;;;;;;;13.77;6.97;;;2.50;99.90;;;2.44;77.09;100778.69;5017011;28;20217;-72
2022/12/28 07:59:06;;;;;;;11.33;6.43;;;2.60;99.90;;;2.45;75.94;100775.34;4991388;28;20212;-71
2022/12/28 08:01:36;;;;;;;10.77;7.00;;;2.70;99.90;;;2.47;76.47;100778.78;4985417;28;20351;-71
2022/12/28 08:04:09;;;;;;;10.90;7.00;;;2.70;99.90;;;2.49;75.92;100783.13;4988283;28;20281;-70
2022/12/28 08:06:39;;;;;;;12.07;6.60;;;2.70;99.90;;;2.55;75.68;100774.84;4991077;28;20204;-69
2022/12/28 08:09:10;;;;;;;12.97;7.77;;;2.80;99.90;;;2.64;76.10;100787.84;4991981;28;20204;-71
2022/12/28 08:11:41;;;;;;;17.13;7.07;;;2.90;99.90;;;2.71;75.59;100789.75;4991806;28;20204;-71
2022/12/28 08:14:11;;;;;;;10.50;6.87;;;2.90;99.90;;;2.80;75.03;100781.53;4989553;28;20219;-71
2022/12/28 08:16:43;;;;;;;10.47;6.87;;;3.00;99.90;;;2.90;75.08;100769.16;4993926;28;20432;-71
2022/12/28 08:19:13;;;;;;;10.73;7.63;;;3.10;99.90;;;2.99;75.04;100770.28;4992250;28;20238;-69
2022/12/28 08:21:44;;;;;;;9.13;6.23;;;3.20;99.90;;;3.04;74.08;100758.56;5018720;28;20209;-71
2022/12/28 08:24:18;;;;;;;10.43;6.60;;;3.20;99.90;;;3.12;73.78;100762.19;5017761;28;20311;-73
2022/12/28 08:26:48;;;;;;;10.23;6.20;;;3.40;99.90;;;3.20;73.55;100765.81;5007750;28;20197;-71
2022/12/28 08:29:20;;;;;;;11.00;7.03;;;3.50;99.90;;;3.28;73.59;100764.38;5007844;28;20203;-72
2022/12/28 08:31:49;;;;;;;10.57;6.10;;;3.50;99.90;;;3.32;72.88;100766.19;5010171;28;20204;-71
2022/12/28 08:34:25;;;;;;;12.10;6.60;;;3.50;99.90;;;3.39;71.97;100768.09;5131925;28;20196;-70
2022/12/28 08:36:54;;;;;;;11.13;6.60;;;3.50;99.90;;;3.51;72.60;100759.09;5129513;28;20930;-69
2022/12/28 08:39:23;;;;;;;9.43;6.33;;;3.70;99.90;;;3.66;73.01;100767.16;5130090;28;20200;-69
2022/12/28 08:41:51;;;;;;;11.13;6.43;;;3.90;99.90;;;3.80;72.29;100765.84;5130233;28;20187;-69
2022/12/28 08:44:20;;;;;;;9.57;6.60;;;4.00;99.90;;;3.82;70.66;100760.78;5131409;28;20219;-68
2022/12/28 08:46:48;;;;;;;12.40;6.73;;;4.00;99.90;;;3.79;70.60;100761.59;5133492;28;20204;-68
2022/12/28 08:49:18;;;;;;;10.07;7.13;;;4.00;99.90;;;3.74;71.06;100760.59;5138373;28;20192;-69
2022/12/28 08:51:47;;;;;;;9.10;6.87;;;3.90;99.90;;;3.73;70.66;100766.50;5138371;28;20188;-70
2022/12/28 08:54:15;;;;;;;10.17;6.40;;;3.90;99.90;;;3.66;70.62;100762.06;5137220;28;20308;-69
2022/12/28 08:56:45;;;;;;;14.33;6.87;;;3.80;99.90;;;3.67;71.03;100758.69;5137062;28;20196;-70
2022/12/28 08:59:16;;;;;;;11.07;6.73;;;3.90;99.90;;;3.82;71.17;100760.78;5137776;28;20469;-70
2022/12/28 09:01:47;;;;;;;10.43;6.53;;;4.00;99.90;;;4.34;71.78;100742.63;5132895;28;20199;-69
2022/12/28 09:04:20;;;;;;;11.03;6.83;;;4.60;99.90;;;4.70;69.97;100739.22;5136435;28;20271;-70
2022/12/28 09:06:50;;;;;;;9.50;6.37;;;4.90;99.90;;;5.20;69.71;100736.94;5134207;28;20205;-69
2022/12/28 09:09:20;;;;;;;11.90;7.27;;;5.50;99.90;;;5.69;66.45;100747.28;5130320;28;20191;-70
2022/12/28 09:11:50;;;;;;;10.83;6.10;;;5.90;99.90;;;6.16;65.46;100748.22;5116773;28;20293;-69
2022/12/28 09:14:18;;;;;;;9.00;6.37;;;6.40;99.90;;;6.55;64.17;100739.47;5131857;28;20214;-70
2022/12/28 09:16:52;;;;;;;7.57;5.60;;;6.80;99.90;;;6.96;62.85;100735.00;5131752;27;20207;-69
2022/12/28 09:19:23;;;;;;;9.47;6.40;;;7.30;99.90;;;7.38;61.62;100740.66;5133720;27;20261;-69
2022/12/28 09:21:54;;;;;;;10.30;6.07;;;7.60;99.90;;;7.39;59.08;100737.25;5134361;28;20204;-71
2022/12/28 09:24:23;;;;;;;12.13;6.47;;;7.50;99.90;;;7.17;58.42;100729.28;5128321;28;20275;-70
2022/12/28 09:26:53;;;;;;;10.20;6.10;;;7.30;99.90;;;6.88;59.08;100728.88;5133132;28;20231;-70
2022/12/28 09:29:22;;;;;;;14.17;6.43;;;7.10;99.90;;;6.67;60.52;100723.47;5134677;28;20199;-70
2022/12/28 09:31:50;;;;;;;10.17;5.90;;;6.80;99.90;;;6.47;61.13;100718.00;5132620;28;20188;-70
2022/12/28 09:34:19;;;;;;;7.87;5.60;;;6.70;99.90;;;6.35;60.87;100723.78;5132696;28;20214;-70
2022/12/28 09:37:06;;;;;;;12.80;8.00;;;6.50;99.90;;;6.25;61.76;100727.03;5128169;28;20195;-70
2022/12/28 09:39:34;;;;;;;11.03;6.17;;;6.50;99.90;;;6.33;62.49;100719.47;5133360;28;20218;-70
2022/12/28 09:42:12;;;;;;;12.27;6.67;;;6.50;99.90;;;6.56;62.07;100707.06;5131422;28;20183;-69
2022/12/28 09:44:59;;;;;;;10.57;5.50;;;6.70;99.90;;;6.76;61.17;100703.94;5129612;28;20207;-69
2022/12/28 09:47:43;;;;;;;9.83;5.77;;;6.90;99.90;;;6.93;60.47;100680.28;5132215;28;20427;-70
2022/12/28 09:50:29;;;;;;;10.33;6.40;;;7.10;99.90;;;7.22;60.47;100688.34;5131164;28;20218;-70
2022/12/28 09:53:19;;;;;;;10.10;5.87;;;7.40;99.90;;;7.26;58.46;100680.72;5129996;28;20192;-71
2022/12/28 09:56:02;;;;;;;8.43;5.47;;;7.30;99.90;;;7.37;59.02;100687.69;5133434;28;20214;-70
2022/12/28 09:58:33;;;;;;;8.50;5.87;;;7.50;99.90;;;7.45;58.21;100679.22;5132944;28;20222;-70
2022/12/28 10:01:04;;;;;;;8.47;5.90;;;7.60;99.90;;;7.48;58.46;100671.56;5129912;28;20224;-71
2022/12/28 10:03:37;;;;;;;8.30;4.97;;;7.70;99.90;;;7.52;58.27;100667.34;5134170;28;20268;-70
2022/12/28 10:06:12;;;;;;;11.07;5.83;;;7.70;99.90;;;7.58;57.60;100653.69;5132307;28;20204;-70
2022/12/28 10:08:46;;;;;;;7.90;5.33;;;7.70;99.90;;;7.62;58.07;100643.50;5126838;28;20199;-70
2022/12/28 10:11:20;;;;;;;8.87;5.47;;;7.80;99.90;;;7.67;58.01;100634.16;5127393;28;20240;-68
2022/12/28 10:13:55;;;;;;;9.53;4.90;;;7.80;99.90;;;7.68;57.15;100640.13;5111777;28;20180;-70
2022/12/28 10:16:26;;;;;;;7.27;4.53;;;7.80;99.90;;;7.66;56.61;100647.81;5119903;28;20175;-70
2022/12/28 10:18:56;;;;;;;10.53;5.33;;;7.80;99.90;;;7.69;57.86;100642.69;5118651;28;20214;-72
2022/12/28 10:21:28;;;;;;;9.80;4.57;;;7.80;99.90;;;7.84;57.52;100638.56;5130460;28;20261;-69
2022/12/28 10:24:06;;;;;;;10.50;5.50;;;8.00;99.90;;;8.10;56.61;100634.53;5129061;28;20218;-72
2022/12/28 10:26:57;;;;;;;7.77;4.83;;;8.30;99.90;;;8.27;55.86;100628.66;5127991;28;20254;-69
2022/12/28 10:29:27;;;;;;;7.90;5.10;;;8.40;99.90;;;8.39;55.30;100623.63;5107078;28;20707;-71
2022/12/28 10:32:01;;;;;;;11.60;5.23;;;8.60;99.90;;;8.48;54.30;100623.69;5104462;28;20196;-71
2022/12/28 10:34:32;;;;;;;8.37;5.13;;;8.60;99.90;;;8.43;53.48;100621.13;5109724;27;20215;-72
2022/12/28 10:37:08;;;;;;;8.00;5.00;;;8.50;99.90;;;8.24;53.66;100611.50;5106063;28;20245;-72
2022/12/28 10:39:51;;;;;;;7.50;4.83;;;8.30;99.90;;;7.98;53.95;100612.16;5108521;28;20196;-71
2022/12/28 10:42:25;;;;;;;8.63;5.13;;;8.10;99.90;;;7.77;54.37;100598.31;5106925;28;20238;-69
2022/12/28 10:45:02;;;;;;;8.93;4.77;;;7.90;99.90;;;7.62;54.79;100599.91;5106749;28;20735;-69
2022/12/28 10:47:35;;;;;;;7.60;4.40;;;7.80;99.90;;;7.41;55.42;100607.38;5107855;28;20203;-72
2022/12/28 10:50:06;;;;;;;9.27;4.50;;;7.60;99.90;;;7.19;55.84;100604.59;5110235;28;20231;-71
2022/12/28 10:52:58;;;;;;;6.50;3.93;;;7.30;99.90;;;6.90;56.46;100603.38;5104599;28;20651;-69
2022/12/28 10:55:30;;;;;;;6.03;4.10;;;7.10;99.90;;;6.67;57.27;100595.41;5104350;28;20196;-71
2022/12/28 10:58:19;;;;;;;9.20;5.17;;;6.80;99.90;;;6.39;58.37;100587.34;5106602;28;20218;-70
2022/12/28 11:01:02;;;;;;;10.60;3.90;;;6.60;99.90;;;6.20;58.42;100580.25;5106204;28;20244;-70
2022/12/28 11:03:34;;;;;;;9.47;4.20;;;6.40;99.90;;;6.07;59.53;100581.75;5107618;28;20802;-71
2022/12/28 11:06:15;;;;;;;6.60;4.17;;;6.30;99.90;;;5.96;59.92;100570.50;5102233;28;20600;-70
2022/12/28 11:09:15;;;;;;;7.23;4.03;;;6.20;99.90;;;5.84;59.86;100553.22;5109126;28;20203;-70
2022/12/28 11:11:47;;;;;;;10.03;4.50;;;6.00;99.90;;;5.76;60.18;100565.91;5108135;28;20207;-71